createdAt,value
2017-12-13T00:00:22.300Z,0
2017-12-13T00:02:24.364Z,0
2017-12-13T00:04:26.311Z,0
2017-12-13T00:06:28.399Z,0
2017-12-13T00:08:30.393Z,0
2017-12-13T00:10:32.241Z,0
2017-12-13T00:12:34.167Z,0
2017-12-13T00:14:35.897Z,0
2017-12-13T00:16:37.673Z,0
2017-12-13T00:18:39.764Z,0
2017-12-13T00:20:41.436Z,0
2017-12-13T00:22:43.238Z,0
2017-12-13T00:24:44.787Z,0
2017-12-13T00:26:46.338Z,0
2017-12-13T00:28:47.814Z,0
2017-12-13T00:30:49.776Z,0
2017-12-13T00:32:51.761Z,0
2017-12-13T00:34:53.428Z,0
2017-12-13T00:36:55.100Z,0
2017-12-13T00:38:57.037Z,0
2017-12-13T00:40:58.756Z,0
2017-12-13T00:43:00.601Z,0
2017-12-13T00:45:02.470Z,0
2017-12-13T00:47:04.371Z,0
2017-12-13T00:49:06.347Z,0
2017-12-13T00:51:08.066Z,0
2017-12-13T00:53:09.789Z,0
2017-12-13T00:55:11.534Z,0
2017-12-13T00:57:13.428Z,0
2017-12-13T00:59:15.156Z,0
2017-12-13T01:01:17.226Z,0
2017-12-13T01:03:18.869Z,0
2017-12-13T01:05:20.890Z,0
2017-12-13T01:07:22.640Z,0
2017-12-13T01:09:24.302Z,0
2017-12-13T01:11:26.028Z,0
2017-12-13T01:13:27.778Z,0
2017-12-13T01:15:29.570Z,0
2017-12-13T01:17:31.392Z,0
2017-12-13T01:19:33.146Z,0
2017-12-13T01:21:35.061Z,0
2017-12-13T01:23:36.799Z,0
2017-12-13T01:25:38.534Z,0
2017-12-13T01:27:40.197Z,0
2017-12-13T01:29:41.902Z,0
2017-12-13T01:31:43.576Z,0
2017-12-13T01:33:45.283Z,0
2017-12-13T01:35:46.813Z,0
2017-12-13T01:37:48.795Z,0
2017-12-13T01:39:50.495Z,0
2017-12-13T01:41:52.503Z,0
2017-12-13T01:43:54.565Z,0
2017-12-13T01:45:56.287Z,0
2017-12-13T01:47:57.966Z,0
2017-12-13T01:49:59.645Z,0
2017-12-13T01:52:01.502Z,0
2017-12-13T01:54:03.230Z,0
2017-12-13T01:56:05.315Z,0
2017-12-13T01:58:07.020Z,0
2017-12-13T02:00:08.766Z,0
2017-12-13T02:02:10.664Z,0
2017-12-13T02:04:12.324Z,0
2017-12-13T02:06:14.085Z,0
2017-12-13T02:08:15.785Z,0
2017-12-13T02:10:17.730Z,0
2017-12-13T02:12:19.643Z,0
2017-12-13T02:14:21.302Z,0
2017-12-13T02:16:23.333Z,0
2017-12-13T02:18:25.518Z,0
2017-12-13T02:20:27.630Z,0
2017-12-13T02:22:29.631Z,0
2017-12-13T02:24:31.407Z,0
2017-12-13T02:26:33.017Z,0
2017-12-13T02:28:34.858Z,0
2017-12-13T02:30:36.565Z,0
2017-12-13T02:32:38.553Z,0
2017-12-13T02:34:40.581Z,0
2017-12-13T02:36:43.226Z,0
2017-12-13T02:38:45.276Z,0
2017-12-13T02:40:47.279Z,0
2017-12-13T02:42:49.216Z,0
2017-12-13T02:44:50.950Z,0
2017-12-13T02:46:52.670Z,0
2017-12-13T02:48:54.347Z,0
2017-12-13T02:50:56.303Z,0
2017-12-13T02:52:58.221Z,0
2017-12-13T02:55:40.929Z,0
2017-12-13T02:57:42.548Z,0
2017-12-13T02:59:44.006Z,0
2017-12-13T03:01:46.294Z,0
2017-12-13T03:03:47.891Z,0
2017-12-13T03:05:49.424Z,0
2017-12-13T03:07:51.116Z,0
2017-12-13T03:09:53.027Z,0
2017-12-13T03:11:54.684Z,0
2017-12-13T03:13:56.298Z,0
2017-12-13T03:15:58.111Z,0
2017-12-13T03:17:59.766Z,0
2017-12-13T03:20:02.663Z,0
2017-12-13T03:22:04.340Z,0
2017-12-13T03:24:06.292Z,0
2017-12-13T03:26:08.014Z,0
2017-12-13T03:28:09.840Z,0
2017-12-13T03:30:11.572Z,0
2017-12-13T03:32:13.305Z,0
2017-12-13T03:34:14.894Z,0
2017-12-13T03:36:16.688Z,0
2017-12-13T03:38:18.332Z,0
2017-12-13T03:40:20.484Z,0
2017-12-13T03:42:22.154Z,0
2017-12-13T03:44:23.887Z,0
2017-12-13T03:46:25.567Z,0
2017-12-13T03:48:28.012Z,0
2017-12-13T03:50:29.838Z,0
2017-12-13T03:52:31.843Z,0
2017-12-13T03:54:33.427Z,0
2017-12-13T03:56:34.936Z,0
2017-12-13T03:58:36.828Z,0
2017-12-13T04:00:38.680Z,0
2017-12-13T04:02:40.608Z,0
2017-12-13T04:04:42.443Z,0
2017-12-13T04:06:44.259Z,0
2017-12-13T04:08:45.914Z,0
2017-12-13T04:10:47.983Z,0
2017-12-13T04:12:49.622Z,0
2017-12-13T04:14:51.528Z,0
2017-12-13T04:16:53.111Z,0
2017-12-13T04:18:54.918Z,0
2017-12-13T04:20:56.641Z,0
2017-12-13T04:22:58.751Z,0
2017-12-13T04:25:00.692Z,0
2017-12-13T04:27:02.615Z,0
2017-12-13T04:29:04.289Z,0
2017-12-13T04:31:05.986Z,0
2017-12-13T04:33:07.581Z,0
2017-12-13T04:35:09.764Z,0
2017-12-13T04:37:11.446Z,0
2017-12-13T04:39:13.498Z,0
2017-12-13T04:41:15.691Z,0
2017-12-13T04:43:17.503Z,0
2017-12-13T04:45:19.266Z,0
2017-12-13T04:47:21.016Z,0
2017-12-13T04:49:22.621Z,0
2017-12-13T04:51:24.754Z,0
2017-12-13T04:53:26.692Z,0
2017-12-13T04:55:28.656Z,0
2017-12-13T04:57:30.316Z,0
2017-12-13T04:59:32.463Z,0
2017-12-13T05:01:34.203Z,0
2017-12-13T05:03:35.957Z,0
2017-12-13T05:05:37.748Z,0
2017-12-13T05:07:39.533Z,0
2017-12-13T05:09:41.512Z,0
2017-12-13T05:11:43.296Z,0
2017-12-13T05:13:45.307Z,0
2017-12-13T05:15:47.286Z,0
2017-12-13T05:17:48.963Z,0
2017-12-13T05:19:50.694Z,0
2017-12-13T05:21:52.632Z,0
2017-12-13T05:23:54.847Z,0
2017-12-13T05:25:56.858Z,0
2017-12-13T05:27:58.554Z,0
2017-12-13T05:30:41.500Z,0
2017-12-13T05:32:43.413Z,0
2017-12-13T05:34:45.036Z,0
2017-12-13T05:36:47.117Z,0
2017-12-13T05:38:48.529Z,0
2017-12-13T05:40:50.557Z,0
2017-12-13T05:42:52.071Z,0
2017-12-13T05:44:53.594Z,0
2017-12-13T05:46:56.096Z,0
2017-12-13T05:48:57.974Z,0
2017-12-13T05:50:59.830Z,0
2017-12-13T05:53:02.124Z,0
2017-12-13T05:55:04.269Z,0
2017-12-13T05:57:06.071Z,0
2017-12-13T05:59:07.635Z,0
2017-12-13T06:01:09.327Z,0
2017-12-13T06:03:11.340Z,0
2017-12-13T06:05:13.046Z,0
2017-12-13T06:07:14.776Z,0
2017-12-13T06:09:16.515Z,32
2017-12-13T06:11:18.266Z,36
2017-12-13T06:13:20.120Z,32
2017-12-13T06:15:21.758Z,32
2017-12-13T06:17:23.425Z,32
2017-12-13T06:19:25.086Z,32
2017-12-13T06:21:27.279Z,32
2017-12-13T06:23:29.102Z,0
2017-12-13T06:25:31.788Z,0
2017-12-13T06:27:33.468Z,0
2017-12-13T06:29:34.972Z,0
2017-12-13T06:31:36.453Z,0
2017-12-13T06:33:37.964Z,0
2017-12-13T06:35:39.451Z,0
2017-12-13T06:37:40.961Z,0
2017-12-13T06:39:42.449Z,0
2017-12-13T06:41:44.251Z,0
2017-12-13T06:43:46.094Z,0
2017-12-13T06:45:47.724Z,0
2017-12-13T06:47:49.408Z,0
2017-12-13T06:49:51.089Z,0
2017-12-13T06:51:52.920Z,0
2017-12-13T06:53:55.180Z,0
2017-12-13T06:55:57.019Z,0
2017-12-13T06:57:58.850Z,0
2017-12-13T07:00:00.484Z,0
2017-12-13T07:02:02.191Z,0
2017-12-13T07:04:03.891Z,4
2017-12-13T07:06:05.668Z,0
2017-12-13T07:08:08.149Z,4
2017-12-13T07:10:09.976Z,0
2017-12-13T07:12:12.353Z,4
2017-12-13T07:14:24.274Z,8
2017-12-13T07:16:38.669Z,8
2017-12-13T07:18:40.366Z,8
2017-12-13T07:20:41.993Z,12
2017-12-13T07:22:43.627Z,12
2017-12-13T07:24:45.123Z,16
2017-12-13T07:26:46.622Z,16
2017-12-13T07:28:48.149Z,12
2017-12-13T07:30:49.675Z,16
2017-12-13T07:32:51.173Z,20
2017-12-13T07:34:52.669Z,28
2017-12-13T07:36:54.115Z,32
2017-12-13T07:38:55.539Z,32
2017-12-13T07:40:57.025Z,28
2017-12-13T07:42:58.494Z,32
2017-12-13T07:44:59.919Z,40
2017-12-13T07:47:01.506Z,68
2017-12-13T07:49:03.208Z,84
2017-12-13T07:51:04.902Z,92
2017-12-13T07:53:06.445Z,104
2017-12-13T07:55:08.178Z,108
2017-12-13T07:57:09.682Z,116
2017-12-13T07:59:11.134Z,136
2017-12-13T08:01:13.090Z,156
2017-12-13T08:03:14.727Z,184
2017-12-13T08:05:16.426Z,212
2017-12-13T08:07:58.854Z,236
2017-12-13T08:10:00.253Z,260
2017-12-13T08:12:01.667Z,276
2017-12-13T08:14:03.083Z,268
2017-12-13T08:16:04.490Z,208
2017-12-13T08:18:05.893Z,160
2017-12-13T08:20:07.306Z,144
2017-12-13T08:22:08.783Z,116
2017-12-13T08:24:10.191Z,104
2017-12-13T08:26:11.626Z,104
2017-12-13T08:28:13.316Z,112
2017-12-13T08:30:14.797Z,120
2017-12-13T08:32:16.262Z,128
2017-12-13T08:34:17.736Z,136
2017-12-13T08:36:19.153Z,140
2017-12-13T08:38:20.564Z,136
2017-12-13T08:40:22.019Z,140
2017-12-13T08:42:23.436Z,148
2017-12-13T08:44:24.870Z,152
2017-12-13T08:46:26.400Z,156
2017-12-13T08:48:27.905Z,172
2017-12-13T08:50:29.332Z,164
2017-12-13T08:52:30.732Z,184
2017-12-13T08:54:32.138Z,212
2017-12-13T08:56:33.590Z,208
2017-12-13T08:58:34.992Z,188
2017-12-13T09:00:36.398Z,216
2017-12-13T09:02:37.853Z,196
2017-12-13T09:04:39.325Z,204
2017-12-13T09:06:40.786Z,204
2017-12-13T09:08:42.286Z,180
2017-12-13T09:10:43.971Z,212
2017-12-13T09:12:45.503Z,220
2017-12-13T09:14:47.175Z,244
2017-12-13T09:16:48.935Z,244
2017-12-13T09:18:50.595Z,208
2017-12-13T09:20:52.106Z,188
2017-12-13T09:22:53.802Z,196
2017-12-13T09:24:55.952Z,176
2017-12-13T09:26:57.673Z,176
2017-12-13T09:28:59.423Z,188
2017-12-13T09:31:01.087Z,212
2017-12-13T09:33:02.746Z,240
2017-12-13T09:35:04.472Z,296
2017-12-13T09:37:05.945Z,316
2017-12-13T09:39:07.638Z,312
2017-12-13T09:41:09.202Z,292
2017-12-13T09:43:10.860Z,264
2017-12-13T09:45:12.772Z,360
2017-12-13T09:47:14.516Z,340
2017-12-13T09:49:16.391Z,336
2017-12-13T09:51:18.044Z,352
2017-12-13T09:53:19.781Z,268
2017-12-13T09:55:21.437Z,332
2017-12-13T09:57:23.055Z,300
2017-12-13T09:59:24.526Z,240
2017-12-13T10:01:26.019Z,208
2017-12-13T10:03:27.481Z,144
2017-12-13T10:05:28.933Z,120
2017-12-13T10:07:30.389Z,136
2017-12-13T10:09:31.832Z,176
2017-12-13T10:11:33.745Z,252
2017-12-13T10:13:35.397Z,368
2017-12-13T10:15:37.021Z,328
2017-12-13T10:17:38.713Z,440
2017-12-13T10:19:40.352Z,372
2017-12-13T10:21:41.854Z,356
2017-12-13T10:23:43.606Z,328
2017-12-13T10:25:45.292Z,268
2017-12-13T10:27:47.033Z,304
2017-12-13T10:29:48.811Z,392
2017-12-13T10:31:50.449Z,440
2017-12-13T10:33:51.928Z,448
2017-12-13T10:35:53.609Z,508
2017-12-13T10:37:55.256Z,472
2017-12-13T10:39:57.050Z,512
2017-12-13T10:41:58.689Z,524
2017-12-13T10:44:00.465Z,512
2017-12-13T10:46:02.365Z,468
2017-12-13T10:48:04.233Z,432
2017-12-13T10:50:06.085Z,424
2017-12-13T10:52:07.753Z,412
2017-12-13T10:54:10.370Z,384
2017-12-13T10:56:12.524Z,360
2017-12-13T10:58:14.166Z,344
2017-12-13T11:00:15.945Z,272
2017-12-13T11:02:17.608Z,248
2017-12-13T11:04:19.402Z,248
2017-12-13T11:06:21.016Z,236
2017-12-13T11:08:22.780Z,260
2017-12-13T11:10:24.501Z,304
2017-12-13T11:12:25.992Z,296
2017-12-13T11:14:27.469Z,272
2017-12-13T11:16:28.870Z,280
2017-12-13T11:18:30.278Z,276
2017-12-13T11:20:31.719Z,276
2017-12-13T11:22:33.189Z,296
2017-12-13T11:24:34.751Z,268
2017-12-13T11:26:36.392Z,264
2017-12-13T11:28:38.074Z,268
2017-12-13T11:30:39.559Z,260
2017-12-13T11:32:40.977Z,248
2017-12-13T11:34:42.403Z,256
2017-12-13T11:36:43.814Z,292
2017-12-13T11:38:45.228Z,260
2017-12-13T11:40:46.666Z,236
2017-12-13T11:42:48.155Z,284
2017-12-13T11:44:49.669Z,320
2017-12-13T11:46:51.181Z,372
2017-12-13T11:48:52.822Z,388
2017-12-13T11:50:54.545Z,352
2017-12-13T11:52:55.981Z,328
2017-12-13T11:54:57.471Z,360
2017-12-13T11:56:58.874Z,328
2017-12-13T11:59:00.342Z,308
2017-12-13T12:01:01.810Z,320
2017-12-13T12:03:03.453Z,332
2017-12-13T12:05:04.911Z,308
2017-12-13T12:07:06.329Z,372
2017-12-13T12:09:07.739Z,352
2017-12-13T12:13:06.640Z,352
2017-12-13T12:15:08.040Z,420
2017-12-13T12:17:09.460Z,408
2017-12-13T12:19:10.920Z,296
2017-12-13T12:21:12.348Z,252
2017-12-13T12:23:13.759Z,256
2017-12-13T12:25:15.180Z,200
2017-12-13T12:27:16.604Z,252
2017-12-13T12:29:18.143Z,276
2017-12-13T12:31:19.554Z,300
2017-12-13T12:33:21.774Z,316
2017-12-13T12:35:23.446Z,356
2017-12-13T12:37:25.280Z,300
2017-12-13T12:39:26.802Z,260
2017-12-13T12:41:28.263Z,200
2017-12-13T12:43:29.781Z,212
2017-12-13T12:45:31.213Z,212
2017-12-13T12:47:33.264Z,236
2017-12-13T12:49:35.020Z,240
2017-12-13T12:51:37.130Z,256
2017-12-13T12:53:38.992Z,196
2017-12-13T12:55:41.070Z,152
2017-12-13T12:57:42.821Z,136
2017-12-13T12:59:44.515Z,136
2017-12-13T13:01:46.577Z,132
2017-12-13T13:03:48.237Z,140
2017-12-13T13:05:49.923Z,124
2017-12-13T13:07:51.689Z,128
2017-12-13T13:09:53.215Z,120
2017-12-13T13:11:55.553Z,120
2017-12-13T13:13:57.134Z,112
2017-12-13T13:15:58.583Z,116
2017-12-13T13:18:00.059Z,116
2017-12-13T13:20:01.671Z,116
2017-12-13T13:22:03.381Z,120
2017-12-13T13:24:05.585Z,128
2017-12-13T13:26:07.036Z,152
2017-12-13T13:28:09.356Z,164
2017-12-13T13:30:10.792Z,168
2017-12-13T13:32:12.266Z,148
2017-12-13T13:34:13.851Z,144
2017-12-13T13:36:15.390Z,124
2017-12-13T13:38:16.834Z,112
2017-12-13T13:40:18.317Z,96
2017-12-13T13:42:19.844Z,92
2017-12-13T13:44:21.668Z,80
2017-12-13T13:46:24.308Z,68
2017-12-13T13:48:26.247Z,76
2017-12-13T13:50:27.867Z,60
2017-12-13T13:52:29.528Z,68
2017-12-13T13:54:31.957Z,64
2017-12-13T13:56:33.602Z,72
2017-12-13T13:58:35.096Z,80
2017-12-13T14:00:37.394Z,76
2017-12-13T14:02:39.410Z,88
2017-12-13T14:04:41.327Z,76
2017-12-13T14:06:43.448Z,56
2017-12-13T14:08:44.902Z,56
2017-12-13T14:10:46.519Z,52
2017-12-13T14:12:48.027Z,52
2017-12-13T14:14:49.501Z,44
2017-12-13T14:16:50.978Z,48
2017-12-13T14:18:53.205Z,44
2017-12-13T14:20:55.303Z,44
2017-12-13T14:22:57.780Z,44
2017-12-13T14:24:59.449Z,44
2017-12-13T14:27:01.104Z,48
2017-12-13T14:29:02.845Z,56
2017-12-13T14:31:04.566Z,56
2017-12-13T14:33:06.285Z,48
2017-12-13T14:35:08.457Z,40
2017-12-13T14:37:10.822Z,36
2017-12-13T14:39:12.298Z,44
2017-12-13T14:41:13.966Z,48
2017-12-13T14:43:15.900Z,52
2017-12-13T14:45:18.148Z,52
2017-12-13T14:47:19.778Z,48
2017-12-13T14:49:21.208Z,52
2017-12-13T14:51:23.425Z,40
2017-12-13T14:53:25.197Z,32
2017-12-13T14:55:26.908Z,28
2017-12-13T14:57:28.444Z,28
2017-12-13T14:59:30.731Z,20
2017-12-13T15:01:33.030Z,20
2017-12-13T15:03:34.670Z,16
2017-12-13T15:05:36.389Z,12
2017-12-13T15:07:37.918Z,12
2017-12-13T15:09:39.373Z,16
2017-12-13T15:11:41.065Z,12
2017-12-13T15:13:42.881Z,12
2017-12-13T15:15:44.355Z,8
2017-12-13T15:17:46.168Z,8
2017-12-13T15:19:48.425Z,4
2017-12-13T15:21:50.350Z,8
2017-12-13T15:23:52.007Z,4
2017-12-13T15:25:54.194Z,4
2017-12-13T15:27:55.696Z,4
2017-12-13T15:29:57.347Z,4
2017-12-13T15:32:00.165Z,4
2017-12-13T15:34:01.864Z,0
2017-12-13T15:36:03.411Z,4
2017-12-13T15:38:05.027Z,0
2017-12-13T15:40:07.242Z,0
2017-12-13T15:42:09.781Z,0
2017-12-13T15:44:11.570Z,0
2017-12-13T15:46:13.268Z,0
2017-12-13T15:48:15.580Z,0
2017-12-13T15:50:17.319Z,0
2017-12-13T15:52:19.212Z,0
2017-12-13T15:54:20.793Z,0
2017-12-13T15:56:23.022Z,0
2017-12-13T15:58:24.683Z,0
2017-12-13T16:00:26.371Z,0
2017-12-13T16:02:28.057Z,0
2017-12-13T16:04:29.982Z,0
2017-12-13T16:06:31.390Z,0
2017-12-13T16:08:32.880Z,0
2017-12-13T16:10:34.539Z,0
2017-12-13T16:12:36.176Z,0
2017-12-13T16:14:37.811Z,0
2017-12-13T16:16:39.502Z,0
2017-12-13T16:18:41.426Z,0
2017-12-13T16:20:43.489Z,0
2017-12-13T16:22:45.078Z,0
2017-12-13T16:24:47.336Z,0
2017-12-13T16:26:49.052Z,0
2017-12-13T16:28:50.525Z,0
2017-12-13T16:30:52.187Z,0
2017-12-13T16:32:53.893Z,0
2017-12-13T16:34:55.330Z,0
2017-12-13T16:36:57.071Z,0
2017-12-13T16:38:58.657Z,0
2017-12-13T16:41:00.156Z,0
2017-12-13T16:43:01.578Z,0
2017-12-13T16:45:03.251Z,0
2017-12-13T16:47:05.165Z,0
2017-12-13T16:49:06.619Z,0
2017-12-13T16:51:08.092Z,0
2017-12-13T16:53:09.596Z,0
2017-12-13T16:55:11.055Z,0
2017-12-13T16:57:12.640Z,0
2017-12-13T16:59:14.062Z,0
2017-12-13T17:01:15.565Z,0
2017-12-13T17:03:17.133Z,0
2017-12-13T17:05:18.759Z,0
2017-12-13T17:07:20.198Z,0
2017-12-13T17:09:21.604Z,0
2017-12-13T17:11:23.011Z,0
2017-12-13T17:13:24.418Z,0
2017-12-13T17:15:25.830Z,0
2017-12-13T17:17:27.315Z,0
2017-12-13T17:19:28.781Z,0
2017-12-13T17:21:30.195Z,0
2017-12-13T17:23:31.662Z,0
2017-12-13T17:25:33.070Z,0
2017-12-13T17:27:34.493Z,0
2017-12-13T17:29:35.918Z,0
2017-12-13T17:31:37.361Z,0
2017-12-13T17:33:39.022Z,0
2017-12-13T17:35:40.471Z,0
2017-12-13T17:37:42.173Z,0
2017-12-13T17:39:43.893Z,0
2017-12-13T17:41:45.362Z,0
2017-12-13T17:43:46.864Z,0
2017-12-13T17:45:48.345Z,0
2017-12-13T17:47:49.840Z,0
2017-12-13T17:49:51.314Z,0
2017-12-13T17:51:52.805Z,0
2017-12-13T17:53:54.403Z,0
2017-12-13T17:55:55.950Z,0
2017-12-13T17:57:57.336Z,0
2017-12-13T17:59:59.582Z,0
2017-12-13T18:02:01.306Z,0
2017-12-13T18:04:02.787Z,0
2017-12-13T18:06:04.588Z,0
2017-12-13T18:08:06.388Z,0
2017-12-13T18:10:07.847Z,0
2017-12-13T18:12:09.466Z,0
2017-12-13T18:14:11.017Z,0
2017-12-13T18:16:12.704Z,0
2017-12-13T18:18:14.175Z,0
2017-12-13T18:20:16.186Z,0
2017-12-13T18:22:17.653Z,0
2017-12-13T18:24:19.270Z,0
2017-12-13T18:26:20.839Z,0
2017-12-13T18:28:22.351Z,0
2017-12-13T18:30:23.892Z,0
2017-12-13T18:32:25.414Z,0
2017-12-13T18:34:26.951Z,0
2017-12-13T18:36:28.843Z,0
2017-12-13T18:38:30.420Z,0
2017-12-13T18:40:32.097Z,0
2017-12-13T18:42:33.660Z,0
2017-12-13T18:44:35.365Z,0
2017-12-13T18:46:36.844Z,0
2017-12-13T18:48:38.374Z,0
2017-12-13T18:50:39.983Z,0
2017-12-13T18:52:41.452Z,0
2017-12-13T18:54:42.901Z,0
2017-12-13T18:56:44.411Z,0
2017-12-13T18:58:45.876Z,0
2017-12-13T19:00:47.410Z,0
2017-12-13T19:02:48.979Z,0
2017-12-13T19:04:50.596Z,0
2017-12-13T19:06:52.247Z,0
2017-12-13T19:08:54.420Z,0
2017-12-13T19:10:55.861Z,0
2017-12-13T19:12:57.344Z,0
2017-12-13T19:14:58.814Z,0
2017-12-13T19:17:00.285Z,0
2017-12-13T19:19:01.800Z,0
2017-12-13T19:21:03.413Z,0
2017-12-13T19:23:05.676Z,0
2017-12-13T19:25:07.391Z,0
2017-12-13T19:27:08.787Z,0
2017-12-13T19:29:10.191Z,0
2017-12-13T19:31:11.892Z,0
2017-12-13T19:33:13.427Z,0
2017-12-13T19:35:15.118Z,0
2017-12-13T19:37:17.481Z,0
2017-12-13T19:39:19.664Z,0
2017-12-13T19:41:21.795Z,0
2017-12-13T19:43:23.618Z,0
2017-12-13T19:45:25.081Z,0
2017-12-13T19:47:26.491Z,0
2017-12-13T19:49:28.491Z,0
2017-12-13T19:51:29.764Z,0
2017-12-13T19:53:32.136Z,0
2017-12-13T19:55:33.940Z,0
2017-12-13T19:57:35.605Z,0
2017-12-13T19:59:37.031Z,0
2017-12-13T20:01:38.437Z,0
2017-12-13T20:03:40.104Z,0
2017-12-13T20:05:42.490Z,0
2017-12-13T20:07:44.052Z,0
2017-12-13T20:09:45.722Z,0
2017-12-13T20:11:47.405Z,0
2017-12-13T20:13:49.560Z,0
2017-12-13T20:15:51.074Z,0
2017-12-13T20:17:52.489Z,0
2017-12-13T20:19:53.905Z,0
2017-12-13T20:21:55.322Z,0
2017-12-13T20:23:56.726Z,0
2017-12-13T20:25:58.135Z,0
2017-12-13T20:27:59.568Z,0
2017-12-13T20:30:00.966Z,0
2017-12-13T20:32:02.371Z,0
2017-12-13T20:34:03.776Z,0
2017-12-13T20:36:05.213Z,0
2017-12-13T20:38:06.639Z,0
2017-12-13T20:40:08.142Z,0
2017-12-13T20:42:09.694Z,0
2017-12-13T20:44:11.123Z,0
2017-12-13T20:46:12.558Z,0
2017-12-13T20:48:14.077Z,0
2017-12-13T20:50:16.011Z,0
2017-12-13T20:52:17.607Z,0
2017-12-13T20:54:19.244Z,0
2017-12-13T20:56:21.383Z,0
2017-12-13T20:58:23.356Z,0
2017-12-13T21:00:25.508Z,36
2017-12-13T21:02:27.560Z,0
2017-12-13T21:04:29.628Z,0
2017-12-13T21:06:31.301Z,0
2017-12-13T21:08:32.922Z,0
2017-12-13T21:10:34.935Z,0
2017-12-13T21:12:36.821Z,0
2017-12-13T21:14:38.534Z,0
2017-12-13T21:16:40.293Z,0
2017-12-13T21:18:42.160Z,0
2017-12-13T21:20:43.795Z,0
2017-12-13T21:22:45.753Z,0
2017-12-13T21:24:47.429Z,0
2017-12-13T21:26:49.143Z,0
2017-12-13T21:28:51.355Z,0
2017-12-13T21:30:53.204Z,0
2017-12-13T21:32:55.354Z,0
2017-12-13T21:34:57.320Z,0
2017-12-13T21:36:59.522Z,0
2017-12-13T21:39:01.554Z,0
2017-12-13T21:41:03.600Z,0
2017-12-13T21:43:05.283Z,0
2017-12-13T21:45:07.218Z,0
2017-12-13T21:47:09.194Z,0
2017-12-13T21:49:10.913Z,0
2017-12-13T21:51:12.793Z,0
2017-12-13T21:53:14.671Z,0
2017-12-13T21:55:16.382Z,0
2017-12-13T21:57:59.325Z,0
2017-12-13T22:00:00.749Z,0
2017-12-13T22:02:02.186Z,0
2017-12-13T22:04:03.780Z,0
2017-12-13T22:06:05.682Z,0
2017-12-13T22:08:07.301Z,0
2017-12-13T22:10:09.209Z,0
2017-12-13T22:12:10.986Z,0
2017-12-13T22:14:13.021Z,0
2017-12-13T22:16:14.816Z,0
2017-12-13T22:18:16.635Z,0
2017-12-13T22:20:18.430Z,0
2017-12-13T22:22:20.545Z,0
2017-12-13T22:24:22.334Z,0
2017-12-13T22:26:24.219Z,0
2017-12-13T22:28:26.036Z,0
2017-12-13T22:30:28.037Z,0
2017-12-13T22:32:29.942Z,0
2017-12-13T22:34:31.802Z,0
2017-12-13T22:36:33.581Z,0
2017-12-13T22:38:35.732Z,0
2017-12-13T22:40:37.551Z,0
2017-12-13T22:42:39.556Z,0
2017-12-13T22:44:41.162Z,0
2017-12-13T22:46:43.239Z,0
2017-12-13T22:48:45.074Z,0
2017-12-13T22:50:46.816Z,0
2017-12-13T22:52:48.567Z,0
2017-12-13T22:54:50.383Z,0
2017-12-13T22:57:33.217Z,0
2017-12-13T22:59:34.852Z,0
2017-12-13T23:01:36.591Z,0
2017-12-13T23:03:38.029Z,0
2017-12-13T23:05:39.465Z,0
2017-12-13T23:07:41.442Z,0
2017-12-13T23:09:43.408Z,0
2017-12-13T23:11:45.137Z,0
2017-12-13T23:13:46.721Z,0
2017-12-13T23:15:48.593Z,0
2017-12-13T23:17:50.565Z,0
2017-12-13T23:19:52.479Z,0
2017-12-13T23:21:54.292Z,0
2017-12-13T23:23:56.232Z,0
2017-12-13T23:25:58.010Z,0
2017-12-13T23:27:59.930Z,0
2017-12-13T23:30:01.851Z,0
2017-12-13T23:32:03.748Z,0
2017-12-13T23:34:05.434Z,0
2017-12-13T23:36:07.210Z,0
2017-12-13T23:38:08.950Z,0
2017-12-13T23:40:10.697Z,0
2017-12-13T23:42:12.463Z,0
2017-12-13T23:44:14.257Z,0
2017-12-13T23:46:16.088Z,0
2017-12-13T23:48:18.035Z,0
2017-12-13T23:50:19.530Z,0
2017-12-13T23:52:21.012Z,0
2017-12-13T23:54:23.040Z,0
2017-12-13T23:56:25.078Z,0
2017-12-13T23:59:08.132Z,0
